sensor_id;sensor_type;location;lat;lon;timestamp;temperature;humidity
18047;DHT22;9148;51.454;13.862;2024-02-04T00:00:27;9.00;99.90
18047;DHT22;9148;51.454;13.862;2024-02-04T00:02:53;9.00;99.90
18047;DHT22;9148;51.454;13.862;2024-02-04T00:05:19;9.00;99.90
18047;DHT22;9148;51.454;13.862;2024-02-04T00:07:45;9.00;99.90
18047;DHT22;9148;51.454;13.862;2024-02-04T00:10:11;9.00;99.90
18047;DHT22;9148;51.454;13.862;2024-02-04T00:12:37;9.00;99.90
18047;DHT22;9148;51.454;13.862;2024-02-04T00:15:04;9.00;99.90
18047;DHT22;9148;51.454;13.862;2024-02-04T00:17:30;9.10;99.90
18047;DHT22;9148;51.454;13.862;2024-02-04T00:19:59;9.10;99.90
18047;DHT22;9148;51.454;13.862;2024-02-04T00:22:28;9.00;99.90
18047;DHT22;9148;51.454;13.862;2024-02-04T00:24:54;9.10;99.90
18047;DHT22;9148;51.454;13.862;2024-02-04T00:27:20;9.10;99.90
18047;DHT22;9148;51.454;13.862;2024-02-04T00:29:45;9.10;99.90
18047;DHT22;9148;51.454;13.862;2024-02-04T00:32:11;9.10;99.90
18047;DHT22;9148;51.454;13.862;2024-02-04T00:34:37;9.10;99.90
18047;DHT22;9148;51.454;13.862;2024-02-04T00:37:02;9.00;99.90
18047;DHT22;9148;51.454;13.862;2024-02-04T00:39:28;8.90;99.90
18047;DHT22;9148;51.454;13.862;2024-02-04T00:41:54;8.80;99.90
18047;DHT22;9148;51.454;13.862;2024-02-04T00:44:19;8.70;99.90
18047;DHT22;9148;51.454;13.862;2024-02-04T00:46:45;8.60;99.90
18047;DHT22;9148;51.454;13.862;2024-02-04T00:49:11;8.60;99.90
18047;DHT22;9148;51.454;13.862;2024-02-04T00:51:36;8.60;99.90
18047;DHT22;9148;51.454;13.862;2024-02-04T00:54:02;9.40;99.90
18047;DHT22;9148;51.454;13.862;2024-02-04T00:56:28;8.40;99.90
18047;DHT22;9148;51.454;13.862;2024-02-04T00:58:54;8.20;99.90
18047;DHT22;9148;51.454;13.862;2024-02-04T01:01:19;8.20;99.90
18047;DHT22;9148;51.454;13.862;2024-02-04T01:03:45;8.10;99.90
18047;DHT22;9148;51.454;13.862;2024-02-04T01:06:11;8.00;99.90
18047;DHT22;9148;51.454;13.862;2024-02-04T01:08:37;7.90;99.90
18047;DHT22;9148;51.454;13.862;2024-02-04T01:11:04;7.80;99.90
18047;DHT22;9148;51.454;13.862;2024-02-04T01:13:31;7.80;99.90
18047;DHT22;9148;51.454;13.862;2024-02-04T01:15:56;7.70;99.90
18047;DHT22;9148;51.454;13.862;2024-02-04T01:18:22;7.70;99.90
18047;DHT22;9148;51.454;13.862;2024-02-04T01:20:48;7.70;99.90
18047;DHT22;9148;51.454;13.862;2024-02-04T01:23:14;7.70;99.90
18047;DHT22;9148;51.454;13.862;2024-02-04T01:25:43;7.60;99.90
18047;DHT22;9148;51.454;13.862;2024-02-04T01:28:08;7.60;99.90
18047;DHT22;9148;51.454;13.862;2024-02-04T01:30:34;7.60;99.90
18047;DHT22;9148;51.454;13.862;2024-02-04T01:33:00;7.60;99.90
18047;DHT22;9148;51.454;13.862;2024-02-04T01:35:26;7.60;99.90
18047;DHT22;9148;51.454;13.862;2024-02-04T01:37:52;7.60;99.90
18047;DHT22;9148;51.454;13.862;2024-02-04T01:40:17;8.10;99.90
18047;DHT22;9148;51.454;13.862;2024-02-04T01:42:43;7.40;99.90
18047;DHT22;9148;51.454;13.862;2024-02-04T01:45:10;7.50;99.90
18047;DHT22;9148;51.454;13.862;2024-02-04T01:47:35;7.40;99.90
18047;DHT22;9148;51.454;13.862;2024-02-04T01:50:03;7.50;99.90
18047;DHT22;9148;51.454;13.862;2024-02-04T01:52:31;7.60;99.90
18047;DHT22;9148;51.454;13.862;2024-02-04T01:54:58;7.60;99.90
18047;DHT22;9148;51.454;13.862;2024-02-04T01:57:24;7.60;99.90
18047;DHT22;9148;51.454;13.862;2024-02-04T01:59:50;7.60;99.90
18047;DHT22;9148;51.454;13.862;2024-02-04T02:02:19;7.70;99.90
18047;DHT22;9148;51.454;13.862;2024-02-04T02:04:45;7.70;99.90
18047;DHT22;9148;51.454;13.862;2024-02-04T02:07:12;7.70;99.90
18047;DHT22;9148;51.454;13.862;2024-02-04T02:09:40;7.70;99.90
18047;DHT22;9148;51.454;13.862;2024-02-04T02:12:12;7.80;99.90
18047;DHT22;9148;51.454;13.862;2024-02-04T02:14:44;7.80;99.90
18047;DHT22;9148;51.454;13.862;2024-02-04T02:17:19;7.80;99.90
18047;DHT22;9148;51.454;13.862;2024-02-04T02:19:54;7.70;99.90
18047;DHT22;9148;51.454;13.862;2024-02-04T02:22:29;7.90;99.90
18047;DHT22;9148;51.454;13.862;2024-02-04T02:25:01;7.80;99.90
18047;DHT22;9148;51.454;13.862;2024-02-04T02:27:27;7.90;99.90
18047;DHT22;9148;51.454;13.862;2024-02-04T02:29:53;7.90;99.90
18047;DHT22;9148;51.454;13.862;2024-02-04T02:32:19;7.90;99.90
18047;DHT22;9148;51.454;13.862;2024-02-04T02:34:46;8.00;99.90
18047;DHT22;9148;51.454;13.862;2024-02-04T02:37:32;7.90;99.90
18047;DHT22;9148;51.454;13.862;2024-02-04T02:42:47;8.00;99.90
18047;DHT22;9148;51.454;13.862;2024-02-04T02:45:15;8.00;99.90
18047;DHT22;9148;51.454;13.862;2024-02-04T02:47:42;8.00;99.90
18047;DHT22;9148;51.454;13.862;2024-02-04T02:50:09;8.10;99.90
18047;DHT22;9148;51.454;13.862;2024-02-04T02:52:35;8.10;99.90
18047;DHT22;9148;51.454;13.862;2024-02-04T02:55:00;8.00;99.90
18047;DHT22;9148;51.454;13.862;2024-02-04T02:57:26;8.10;99.90
18047;DHT22;9148;51.454;13.862;2024-02-04T02:59:52;8.10;99.90
18047;DHT22;9148;51.454;13.862;2024-02-04T03:02:17;8.10;99.90
18047;DHT22;9148;51.454;13.862;2024-02-04T03:04:43;8.10;99.90
18047;DHT22;9148;51.454;13.862;2024-02-04T03:07:09;8.10;99.90
18047;DHT22;9148;51.454;13.862;2024-02-04T03:09:34;8.20;99.90
18047;DHT22;9148;51.454;13.862;2024-02-04T03:12:00;8.10;99.90
18047;DHT22;9148;51.454;13.862;2024-02-04T03:14:25;8.10;99.90
18047;DHT22;9148;51.454;13.862;2024-02-04T03:16:51;8.70;99.90
18047;DHT22;9148;51.454;13.862;2024-02-04T03:19:17;8.20;99.90
18047;DHT22;9148;51.454;13.862;2024-02-04T03:21:42;8.20;99.90
18047;DHT22;9148;51.454;13.862;2024-02-04T03:24:08;8.20;99.90
18047;DHT22;9148;51.454;13.862;2024-02-04T03:26:34;8.20;99.90
18047;DHT22;9148;51.454;13.862;2024-02-04T03:28:59;8.20;99.90
18047;DHT22;9148;51.454;13.862;2024-02-04T03:31:25;8.50;99.90
18047;DHT22;9148;51.454;13.862;2024-02-04T03:33:51;8.30;99.90
18047;DHT22;9148;51.454;13.862;2024-02-04T03:36:23;8.30;99.90
18047;DHT22;9148;51.454;13.862;2024-02-04T03:38:50;8.30;99.90
18047;DHT22;9148;51.454;13.862;2024-02-04T03:41:16;8.30;99.90
18047;DHT22;9148;51.454;13.862;2024-02-04T03:43:42;8.40;99.90
18047;DHT22;9148;51.454;13.862;2024-02-04T03:46:08;8.30;99.90
18047;DHT22;9148;51.454;13.862;2024-02-04T03:48:34;8.20;99.90
18047;DHT22;9148;51.454;13.862;2024-02-04T03:51:01;8.10;99.90
18047;DHT22;9148;51.454;13.862;2024-02-04T03:53:26;8.10;99.90
18047;DHT22;9148;51.454;13.862;2024-02-04T03:55:52;8.10;99.90
18047;DHT22;9148;51.454;13.862;2024-02-04T03:58:20;8.00;99.90
18047;DHT22;9148;51.454;13.862;2024-02-04T04:00:45;8.00;99.90
18047;DHT22;9148;51.454;13.862;2024-02-04T04:03:11;8.60;99.90
18047;DHT22;9148;51.454;13.862;2024-02-04T04:05:37;8.00;99.90
18047;DHT22;9148;51.454;13.862;2024-02-04T04:08:02;7.90;99.90
18047;DHT22;9148;51.454;13.862;2024-02-04T04:10:28;7.80;99.90
18047;DHT22;9148;51.454;13.862;2024-02-04T04:12:54;7.80;99.90
18047;DHT22;9148;51.454;13.862;2024-02-04T04:15:20;7.80;99.90
18047;DHT22;9148;51.454;13.862;2024-02-04T04:17:45;7.70;99.90
18047;DHT22;9148;51.454;13.862;2024-02-04T04:20:11;7.60;99.90
18047;DHT22;9148;51.454;13.862;2024-02-04T04:22:39;7.60;99.90
18047;DHT22;9148;51.454;13.862;2024-02-04T04:25:09;7.60;99.90
18047;DHT22;9148;51.454;13.862;2024-02-04T04:27:35;7.50;99.90
18047;DHT22;9148;51.454;13.862;2024-02-04T04:30:01;7.50;99.90
18047;DHT22;9148;51.454;13.862;2024-02-04T04:32:26;7.50;99.90
18047;DHT22;9148;51.454;13.862;2024-02-04T04:34:52;7.50;99.90
18047;DHT22;9148;51.454;13.862;2024-02-04T04:37:20;7.90;99.90
18047;DHT22;9148;51.454;13.862;2024-02-04T04:39:46;7.60;99.90
18047;DHT22;9148;51.454;13.862;2024-02-04T04:42:11;7.70;99.90
18047;DHT22;9148;51.454;13.862;2024-02-04T04:44:37;7.80;99.90
18047;DHT22;9148;51.454;13.862;2024-02-04T04:47:03;7.80;99.90
18047;DHT22;9148;51.454;13.862;2024-02-04T04:49:29;7.90;99.90
18047;DHT22;9148;51.454;13.862;2024-02-04T04:51:55;7.90;99.90
18047;DHT22;9148;51.454;13.862;2024-02-04T04:54:20;7.80;99.90
18047;DHT22;9148;51.454;13.862;2024-02-04T04:56:46;7.80;99.90
18047;DHT22;9148;51.454;13.862;2024-02-04T04:59:12;7.80;99.90
18047;DHT22;9148;51.454;13.862;2024-02-04T05:01:45;7.80;99.90
18047;DHT22;9148;51.454;13.862;2024-02-04T05:04:14;7.80;99.90
18047;DHT22;9148;51.454;13.862;2024-02-04T05:06:41;7.80;99.90
18047;DHT22;9148;51.454;13.862;2024-02-04T05:09:06;7.80;99.90
18047;DHT22;9148;51.454;13.862;2024-02-04T05:11:32;7.80;99.90
18047;DHT22;9148;51.454;13.862;2024-02-04T05:13:58;7.70;99.90
18047;DHT22;9148;51.454;13.862;2024-02-04T05:16:23;7.80;99.90
18047;DHT22;9148;51.454;13.862;2024-02-04T05:18:49;7.80;99.90
18047;DHT22;9148;51.454;13.862;2024-02-04T05:21:15;7.90;99.90
18047;DHT22;9148;51.454;13.862;2024-02-04T05:23:40;8.00;99.90
18047;DHT22;9148;51.454;13.862;2024-02-04T05:26:06;7.90;99.90
18047;DHT22;9148;51.454;13.862;2024-02-04T05:28:32;8.10;99.90
18047;DHT22;9148;51.454;13.862;2024-02-04T05:30:58;8.00;99.90
18047;DHT22;9148;51.454;13.862;2024-02-04T05:33:24;8.10;99.90
18047;DHT22;9148;51.454;13.862;2024-02-04T05:35:49;8.10;99.90
18047;DHT22;9148;51.454;13.862;2024-02-04T05:38:16;8.10;99.90
18047;DHT22;9148;51.454;13.862;2024-02-04T05:40:42;8.20;99.90
18047;DHT22;9148;51.454;13.862;2024-02-04T05:43:07;8.20;99.90
18047;DHT22;9148;51.454;13.862;2024-02-04T05:45:36;8.20;99.90
18047;DHT22;9148;51.454;13.862;2024-02-04T05:48:02;8.30;99.90
18047;DHT22;9148;51.454;13.862;2024-02-04T05:50:28;8.40;99.90
18047;DHT22;9148;51.454;13.862;2024-02-04T05:52:54;8.30;99.90
18047;DHT22;9148;51.454;13.862;2024-02-04T05:55:20;8.40;99.90
18047;DHT22;9148;51.454;13.862;2024-02-04T05:57:45;8.50;99.90
18047;DHT22;9148;51.454;13.862;2024-02-04T06:00:12;8.50;99.90
18047;DHT22;9148;51.454;13.862;2024-02-04T06:02:38;8.50;99.90
18047;DHT22;9148;51.454;13.862;2024-02-04T06:05:05;8.50;99.90
18047;DHT22;9148;51.454;13.862;2024-02-04T06:07:30;8.60;99.90
18047;DHT22;9148;51.454;13.862;2024-02-04T06:09:56;8.60;99.90
18047;DHT22;9148;51.454;13.862;2024-02-04T06:12:22;8.60;99.90
18047;DHT22;9148;51.454;13.862;2024-02-04T06:14:48;8.60;99.90
18047;DHT22;9148;51.454;13.862;2024-02-04T06:17:14;8.60;99.90
18047;DHT22;9148;51.454;13.862;2024-02-04T06:19:39;8.60;99.90
18047;DHT22;9148;51.454;13.862;2024-02-04T06:22:05;8.70;99.90
18047;DHT22;9148;51.454;13.862;2024-02-04T06:24:31;8.70;99.90
18047;DHT22;9148;51.454;13.862;2024-02-04T06:26:56;8.60;99.90
18047;DHT22;9148;51.454;13.862;2024-02-04T06:29:22;8.70;99.90
18047;DHT22;9148;51.454;13.862;2024-02-04T06:31:48;8.60;99.90
18047;DHT22;9148;51.454;13.862;2024-02-04T06:34:13;8.70;99.90
18047;DHT22;9148;51.454;13.862;2024-02-04T06:36:43;8.60;99.90
18047;DHT22;9148;51.454;13.862;2024-02-04T06:39:09;8.60;99.90
18047;DHT22;9148;51.454;13.862;2024-02-04T06:41:35;8.60;99.90
18047;DHT22;9148;51.454;13.862;2024-02-04T06:44:03;8.60;99.90
18047;DHT22;9148;51.454;13.862;2024-02-04T06:46:29;8.60;99.90
18047;DHT22;9148;51.454;13.862;2024-02-04T06:48:55;8.70;99.90
18047;DHT22;9148;51.454;13.862;2024-02-04T06:51:21;9.20;99.90
18047;DHT22;9148;51.454;13.862;2024-02-04T06:53:46;8.60;99.90
18047;DHT22;9148;51.454;13.862;2024-02-04T06:56:12;8.60;99.90
18047;DHT22;9148;51.454;13.862;2024-02-04T06:58:39;8.50;99.90
18047;DHT22;9148;51.454;13.862;2024-02-04T07:01:08;8.50;99.90
18047;DHT22;9148;51.454;13.862;2024-02-04T07:03:34;8.50;99.90
18047;DHT22;9148;51.454;13.862;2024-02-04T07:06:00;8.60;99.90
18047;DHT22;9148;51.454;13.862;2024-02-04T07:08:26;8.60;99.90
18047;DHT22;9148;51.454;13.862;2024-02-04T07:10:52;8.60;99.90
18047;DHT22;9148;51.454;13.862;2024-02-04T07:13:18;8.70;99.90
18047;DHT22;9148;51.454;13.862;2024-02-04T07:15:44;8.60;99.90
18047;DHT22;9148;51.454;13.862;2024-02-04T07:18:10;8.70;99.90
18047;DHT22;9148;51.454;13.862;2024-02-04T07:20:36;8.60;99.90
18047;DHT22;9148;51.454;13.862;2024-02-04T07:23:03;8.60;99.90
18047;DHT22;9148;51.454;13.862;2024-02-04T07:25:29;8.60;99.90
18047;DHT22;9148;51.454;13.862;2024-02-04T07:27:55;8.60;99.90
18047;DHT22;9148;51.454;13.862;2024-02-04T07:30:22;8.60;99.90
18047;DHT22;9148;51.454;13.862;2024-02-04T07:32:47;8.60;99.90
18047;DHT22;9148;51.454;13.862;2024-02-04T07:35:13;8.60;99.90
18047;DHT22;9148;51.454;13.862;2024-02-04T07:37:39;8.60;99.90
18047;DHT22;9148;51.454;13.862;2024-02-04T07:40:05;8.60;99.90
18047;DHT22;9148;51.454;13.862;2024-02-04T07:42:31;8.60;99.90
18047;DHT22;9148;51.454;13.862;2024-02-04T07:44:57;8.50;99.90
18047;DHT22;9148;51.454;13.862;2024-02-04T07:47:23;8.50;99.90
18047;DHT22;9148;51.454;13.862;2024-02-04T07:49:49;8.50;99.90
18047;DHT22;9148;51.454;13.862;2024-02-04T07:52:16;8.50;99.90
18047;DHT22;9148;51.454;13.862;2024-02-04T07:54:42;8.50;99.90
18047;DHT22;9148;51.454;13.862;2024-02-04T07:57:11;8.50;99.90
18047;DHT22;9148;51.454;13.862;2024-02-04T07:59:37;8.50;99.90
18047;DHT22;9148;51.454;13.862;2024-02-04T08:02:03;8.50;99.90
18047;DHT22;9148;51.454;13.862;2024-02-04T08:04:29;8.40;99.90
18047;DHT22;9148;51.454;13.862;2024-02-04T08:06:54;8.50;99.90
18047;DHT22;9148;51.454;13.862;2024-02-04T08:09:20;8.60;99.90
18047;DHT22;9148;51.454;13.862;2024-02-04T08:11:46;8.60;99.90
18047;DHT22;9148;51.454;13.862;2024-02-04T08:14:12;8.60;99.90
18047;DHT22;9148;51.454;13.862;2024-02-04T08:16:39;8.60;99.90
18047;DHT22;9148;51.454;13.862;2024-02-04T08:19:06;8.60;99.90
18047;DHT22;9148;51.454;13.862;2024-02-04T08:21:32;8.70;99.90
18047;DHT22;9148;51.454;13.862;2024-02-04T08:23:58;8.70;99.90
18047;DHT22;9148;51.454;13.862;2024-02-04T08:26:23;8.80;99.90
18047;DHT22;9148;51.454;13.862;2024-02-04T08:28:50;8.70;99.90
18047;DHT22;9148;51.454;13.862;2024-02-04T08:31:16;8.80;99.90
18047;DHT22;9148;51.454;13.862;2024-02-04T08:33:42;8.80;99.90
18047;DHT22;9148;51.454;13.862;2024-02-04T08:36:07;8.90;99.90
18047;DHT22;9148;51.454;13.862;2024-02-04T08:38:36;8.90;99.90
18047;DHT22;9148;51.454;13.862;2024-02-04T08:41:03;9.00;99.90
18047;DHT22;9148;51.454;13.862;2024-02-04T08:43:29;9.00;99.90
18047;DHT22;9148;51.454;13.862;2024-02-04T08:45:54;9.00;99.90
18047;DHT22;9148;51.454;13.862;2024-02-04T08:48:20;9.10;99.90
18047;DHT22;9148;51.454;13.862;2024-02-04T08:50:46;9.10;99.90
18047;DHT22;9148;51.454;13.862;2024-02-04T08:53:11;9.10;99.90
18047;DHT22;9148;51.454;13.862;2024-02-04T08:55:37;9.20;99.90
18047;DHT22;9148;51.454;13.862;2024-02-04T08:58:03;9.20;99.90
18047;DHT22;9148;51.454;13.862;2024-02-04T09:00:29;9.20;99.90
18047;DHT22;9148;51.454;13.862;2024-02-04T09:02:54;9.30;99.90
18047;DHT22;9148;51.454;13.862;2024-02-04T09:05:20;9.30;99.90
18047;DHT22;9148;51.454;13.862;2024-02-04T09:07:49;9.30;99.90
18047;DHT22;9148;51.454;13.862;2024-02-04T09:10:15;9.30;99.90
18047;DHT22;9148;51.454;13.862;2024-02-04T09:12:40;9.40;99.90
18047;DHT22;9148;51.454;13.862;2024-02-04T09:15:09;9.40;99.90
18047;DHT22;9148;51.454;13.862;2024-02-04T09:17:35;9.50;99.90
18047;DHT22;9148;51.454;13.862;2024-02-04T09:20:01;9.50;99.90
18047;DHT22;9148;51.454;13.862;2024-02-04T09:22:27;9.50;99.90
18047;DHT22;9148;51.454;13.862;2024-02-04T09:24:53;9.50;99.90
18047;DHT22;9148;51.454;13.862;2024-02-04T09:27:19;9.60;99.90
18047;DHT22;9148;51.454;13.862;2024-02-04T09:29:45;9.60;99.90
18047;DHT22;9148;51.454;13.862;2024-02-04T09:32:10;9.60;99.90
18047;DHT22;9148;51.454;13.862;2024-02-04T09:34:36;9.60;99.90
18047;DHT22;9148;51.454;13.862;2024-02-04T09:37:02;9.60;99.90
18047;DHT22;9148;51.454;13.862;2024-02-04T09:39:28;9.60;99.90
18047;DHT22;9148;51.454;13.862;2024-02-04T09:41:55;9.60;99.90
18047;DHT22;9148;51.454;13.862;2024-02-04T09:44:22;9.50;99.90
18047;DHT22;9148;51.454;13.862;2024-02-04T09:46:48;9.60;99.90
18047;DHT22;9148;51.454;13.862;2024-02-04T09:49:14;9.00;99.90
18047;DHT22;9148;51.454;13.862;2024-02-04T09:51:41;9.70;99.90
18047;DHT22;9148;51.454;13.862;2024-02-04T09:54:10;9.70;99.90
18047;DHT22;9148;51.454;13.862;2024-02-04T09:56:37;9.60;99.90
18047;DHT22;9148;51.454;13.862;2024-02-04T09:59:04;9.60;99.90
18047;DHT22;9148;51.454;13.862;2024-02-04T10:01:31;9.60;99.90
18047;DHT22;9148;51.454;13.862;2024-02-04T10:03:57;9.60;99.90
18047;DHT22;9148;51.454;13.862;2024-02-04T10:06:24;9.60;99.90
18047;DHT22;9148;51.454;13.862;2024-02-04T10:08:50;9.60;99.90
18047;DHT22;9148;51.454;13.862;2024-02-04T10:11:16;9.60;99.90
18047;DHT22;9148;51.454;13.862;2024-02-04T10:13:49;9.50;99.90
18047;DHT22;9148;51.454;13.862;2024-02-04T10:16:16;9.50;99.90
18047;DHT22;9148;51.454;13.862;2024-02-04T10:18:43;9.60;99.90
18047;DHT22;9148;51.454;13.862;2024-02-04T10:21:20;9.50;99.90
18047;DHT22;9148;51.454;13.862;2024-02-04T10:23:47;9.60;99.90
18047;DHT22;9148;51.454;13.862;2024-02-04T10:26:13;9.60;99.90
18047;DHT22;9148;51.454;13.862;2024-02-04T10:28:39;9.70;99.90
18047;DHT22;9148;51.454;13.862;2024-02-04T10:31:09;9.60;99.90
18047;DHT22;9148;51.454;13.862;2024-02-04T10:33:35;9.60;99.90
18047;DHT22;9148;51.454;13.862;2024-02-04T10:36:02;9.70;99.90
18047;DHT22;9148;51.454;13.862;2024-02-04T10:38:29;9.70;99.90
18047;DHT22;9148;51.454;13.862;2024-02-04T10:40:55;9.70;99.90
18047;DHT22;9148;51.454;13.862;2024-02-04T10:43:21;9.80;99.90
18047;DHT22;9148;51.454;13.862;2024-02-04T10:45:48;9.80;99.90
18047;DHT22;9148;51.454;13.862;2024-02-04T10:48:19;9.90;99.90
18047;DHT22;9148;51.454;13.862;2024-02-04T10:50:47;9.90;99.90
18047;DHT22;9148;51.454;13.862;2024-02-04T10:53:15;10.00;99.90
18047;DHT22;9148;51.454;13.862;2024-02-04T10:55:41;9.90;99.90
18047;DHT22;9148;51.454;13.862;2024-02-04T10:58:09;10.00;99.90
18047;DHT22;9148;51.454;13.862;2024-02-04T11:00:36;10.00;99.90
18047;DHT22;9148;51.454;13.862;2024-02-04T11:03:04;10.10;99.90
18047;DHT22;9148;51.454;13.862;2024-02-04T11:05:30;9.00;99.90
18047;DHT22;9148;51.454;13.862;2024-02-04T11:07:56;10.20;99.90
18047;DHT22;9148;51.454;13.862;2024-02-04T11:10:23;10.30;99.90
18047;DHT22;9148;51.454;13.862;2024-02-04T11:12:50;10.30;99.90
18047;DHT22;9148;51.454;13.862;2024-02-04T11:15:17;10.40;99.90
18047;DHT22;9148;51.454;13.862;2024-02-04T11:21:03;10.50;99.90
18047;DHT22;9148;51.454;13.862;2024-02-04T11:24:06;10.60;99.90
18047;DHT22;9148;51.454;13.862;2024-02-04T11:26:54;10.60;99.90
18047;DHT22;9148;51.454;13.862;2024-02-04T11:29:20;10.60;99.90
18047;DHT22;9148;51.454;13.862;2024-02-04T11:31:46;10.70;99.90
18047;DHT22;9148;51.454;13.862;2024-02-04T11:34:12;10.70;99.90
18047;DHT22;9148;51.454;13.862;2024-02-04T11:36:39;10.70;99.90
18047;DHT22;9148;51.454;13.862;2024-02-04T11:39:12;10.80;99.90
18047;DHT22;9148;51.454;13.862;2024-02-04T11:41:48;10.80;99.90
18047;DHT22;9148;51.454;13.862;2024-02-04T11:44:21;10.80;99.90
18047;DHT22;9148;51.454;13.862;2024-02-04T11:46:47;10.90;99.90
18047;DHT22;9148;51.454;13.862;2024-02-04T11:49:17;10.90;99.90
18047;DHT22;9148;51.454;13.862;2024-02-04T11:51:49;10.90;99.90
18047;DHT22;9148;51.454;13.862;2024-02-04T11:54:17;10.90;99.90
18047;DHT22;9148;51.454;13.862;2024-02-04T11:56:45;10.90;99.90
18047;DHT22;9148;51.454;13.862;2024-02-04T11:59:20;11.00;99.90
18047;DHT22;9148;51.454;13.862;2024-02-04T12:01:49;10.80;99.90
18047;DHT22;9148;51.454;13.862;2024-02-04T12:04:18;10.80;99.90
18047;DHT22;9148;51.454;13.862;2024-02-04T12:06:44;10.50;99.90
18047;DHT22;9148;51.454;13.862;2024-02-04T12:09:10;10.40;99.90
18047;DHT22;9148;51.454;13.862;2024-02-04T12:11:36;10.30;99.90
18047;DHT22;9148;51.454;13.862;2024-02-04T12:14:07;10.10;99.90
18047;DHT22;9148;51.454;13.862;2024-02-04T12:16:33;9.80;99.90
18047;DHT22;9148;51.454;13.862;2024-02-04T12:19:02;9.60;99.90
18047;DHT22;9148;51.454;13.862;2024-02-04T12:21:31;9.50;99.90
18047;DHT22;9148;51.454;13.862;2024-02-04T12:23:58;9.40;99.90
18047;DHT22;9148;51.454;13.862;2024-02-04T12:26:25;8.80;99.90
18047;DHT22;9148;51.454;13.862;2024-02-04T12:28:51;9.20;99.90
18047;DHT22;9148;51.454;13.862;2024-02-04T12:31:20;9.20;99.90
18047;DHT22;9148;51.454;13.862;2024-02-04T12:34:00;9.10;99.90
18047;DHT22;9148;51.454;13.862;2024-02-04T12:36:31;9.10;99.90
18047;DHT22;9148;51.454;13.862;2024-02-04T12:38:58;9.20;99.90
18047;DHT22;9148;51.454;13.862;2024-02-04T12:41:28;9.20;99.90
18047;DHT22;9148;51.454;13.862;2024-02-04T12:43:58;9.60;99.90
18047;DHT22;9148;51.454;13.862;2024-02-04T12:46:26;9.20;99.90
18047;DHT22;9148;51.454;13.862;2024-02-04T12:48:52;9.30;99.90
18047;DHT22;9148;51.454;13.862;2024-02-04T12:51:29;9.30;99.90
18047;DHT22;9148;51.454;13.862;2024-02-04T12:54:06;9.40;99.90
18047;DHT22;9148;51.454;13.862;2024-02-04T12:56:51;9.40;99.90
18047;DHT22;9148;51.454;13.862;2024-02-04T13:02:06;9.60;99.90
18047;DHT22;9148;51.454;13.862;2024-02-04T13:04:41;9.60;99.90
18047;DHT22;9148;51.454;13.862;2024-02-04T13:07:08;9.60;99.90
18047;DHT22;9148;51.454;13.862;2024-02-04T13:09:36;9.60;99.90
18047;DHT22;9148;51.454;13.862;2024-02-04T13:12:05;9.60;99.90
18047;DHT22;9148;51.454;13.862;2024-02-04T13:14:34;9.70;99.90
18047;DHT22;9148;51.454;13.862;2024-02-04T13:17:03;9.60;99.90
18047;DHT22;9148;51.454;13.862;2024-02-04T13:19:37;9.70;99.90
18047;DHT22;9148;51.454;13.862;2024-02-04T13:22:04;9.70;99.90
18047;DHT22;9148;51.454;13.862;2024-02-04T13:24:33;9.70;99.90
18047;DHT22;9148;51.454;13.862;2024-02-04T13:26:59;9.70;99.90
18047;DHT22;9148;51.454;13.862;2024-02-04T13:29:26;9.70;99.90
18047;DHT22;9148;51.454;13.862;2024-02-04T13:31:52;9.80;99.90
18047;DHT22;9148;51.454;13.862;2024-02-04T13:34:18;9.80;99.90
18047;DHT22;9148;51.454;13.862;2024-02-04T13:36:44;9.80;99.90
18047;DHT22;9148;51.454;13.862;2024-02-04T13:39:11;9.90;99.90
18047;DHT22;9148;51.454;13.862;2024-02-04T13:41:41;9.90;99.90
18047;DHT22;9148;51.454;13.862;2024-02-04T13:44:07;9.90;99.90
18047;DHT22;9148;51.454;13.862;2024-02-04T13:46:33;9.90;99.90
18047;DHT22;9148;51.454;13.862;2024-02-04T13:48:59;9.90;99.90
18047;DHT22;9148;51.454;13.862;2024-02-04T13:51:24;10.40;99.90
18047;DHT22;9148;51.454;13.862;2024-02-04T13:53:50;10.00;99.90
18047;DHT22;9148;51.454;13.862;2024-02-04T13:56:16;9.90;99.90
18047;DHT22;9148;51.454;13.862;2024-02-04T13:58:44;9.90;99.90
18047;DHT22;9148;51.454;13.862;2024-02-04T14:01:10;9.90;99.90
18047;DHT22;9148;51.454;13.862;2024-02-04T14:03:36;10.00;99.90
18047;DHT22;9148;51.454;13.862;2024-02-04T14:06:01;10.00;99.90
18047;DHT22;9148;51.454;13.862;2024-02-04T14:08:29;10.00;99.90
18047;DHT22;9148;51.454;13.862;2024-02-04T14:10:55;10.10;99.90
18047;DHT22;9148;51.454;13.862;2024-02-04T14:13:21;10.10;99.90
18047;DHT22;9148;51.454;13.862;2024-02-04T14:15:47;10.10;99.90
18047;DHT22;9148;51.454;13.862;2024-02-04T14:18:12;10.00;99.90
18047;DHT22;9148;51.454;13.862;2024-02-04T14:20:38;10.10;99.90
18047;DHT22;9148;51.454;13.862;2024-02-04T14:23:04;10.10;99.90
18047;DHT22;9148;51.454;13.862;2024-02-04T14:25:29;10.10;99.90
18047;DHT22;9148;51.454;13.862;2024-02-04T14:27:55;10.10;99.90
18047;DHT22;9148;51.454;13.862;2024-02-04T14:30:21;10.00;99.90
18047;DHT22;9148;51.454;13.862;2024-02-04T14:32:46;10.10;99.90
18047;DHT22;9148;51.454;13.862;2024-02-04T14:35:12;10.00;99.90
18047;DHT22;9148;51.454;13.862;2024-02-04T14:37:38;10.00;99.90
18047;DHT22;9148;51.454;13.862;2024-02-04T14:40:07;10.00;99.90
18047;DHT22;9148;51.454;13.862;2024-02-04T14:42:33;10.00;99.90
18047;DHT22;9148;51.454;13.862;2024-02-04T14:44:59;10.00;99.90
18047;DHT22;9148;51.454;13.862;2024-02-04T14:47:28;10.00;99.90
18047;DHT22;9148;51.454;13.862;2024-02-04T14:49:54;10.00;99.90
18047;DHT22;9148;51.454;13.862;2024-02-04T14:52:20;10.00;99.90
18047;DHT22;9148;51.454;13.862;2024-02-04T14:54:46;9.90;99.90
18047;DHT22;9148;51.454;13.862;2024-02-04T14:57:12;10.00;99.90
18047;DHT22;9148;51.454;13.862;2024-02-04T14:59:39;10.00;99.90
18047;DHT22;9148;51.454;13.862;2024-02-04T15:02:05;10.00;99.90
18047;DHT22;9148;51.454;13.862;2024-02-04T15:04:32;10.00;99.90
18047;DHT22;9148;51.454;13.862;2024-02-04T15:06:58;10.00;99.90
18047;DHT22;9148;51.454;13.862;2024-02-04T15:09:24;9.90;99.90
18047;DHT22;9148;51.454;13.862;2024-02-04T15:11:50;9.90;99.90
18047;DHT22;9148;51.454;13.862;2024-02-04T15:14:19;9.90;99.90
18047;DHT22;9148;51.454;13.862;2024-02-04T15:16:45;10.00;99.90
18047;DHT22;9148;51.454;13.862;2024-02-04T15:19:11;9.90;99.90
18047;DHT22;9148;51.454;13.862;2024-02-04T15:21:37;9.90;99.90
18047;DHT22;9148;51.454;13.862;2024-02-04T15:24:03;9.90;99.90
18047;DHT22;9148;51.454;13.862;2024-02-04T15:26:34;9.90;99.90
18047;DHT22;9148;51.454;13.862;2024-02-04T15:29:03;9.90;99.90
18047;DHT22;9148;51.454;13.862;2024-02-04T15:31:30;9.90;99.90
18047;DHT22;9148;51.454;13.862;2024-02-04T15:33:58;9.90;99.90
18047;DHT22;9148;51.454;13.862;2024-02-04T15:36:25;9.90;99.90
18047;DHT22;9148;51.454;13.862;2024-02-04T15:38:51;9.80;99.90
18047;DHT22;9148;51.454;13.862;2024-02-04T15:41:17;9.80;99.90
18047;DHT22;9148;51.454;13.862;2024-02-04T15:43:42;9.90;99.90
18047;DHT22;9148;51.454;13.862;2024-02-04T15:46:09;9.80;99.90
18047;DHT22;9148;51.454;13.862;2024-02-04T15:48:39;9.80;99.90
18047;DHT22;9148;51.454;13.862;2024-02-04T15:51:06;9.80;99.90